地図

経路データ

SID SEASON NUMBER BASIN SUBBASIN NAME ISO_TIME NATURE LAT LON WMO_WIND WMO_PRES WMO_AGENCY TRACK_TYPE DIST2LAND LANDFALL IFLAG USA_AGENCY USA_ATCF_ID USA_LAT USA_LON USA_RECORD USA_STATUS USA_WIND USA_PRES USA_SSHS USA_R34_NE USA_R34_SE USA_R34_SW USA_R34_NW USA_R50_NE USA_R50_SE USA_R50_SW USA_R50_NW USA_R64_NE USA_R64_SE USA_R64_SW USA_R64_NW USA_POCI USA_ROCI USA_RMW USA_EYE TOKYO_LAT TOKYO_LON TOKYO_GRADE TOKYO_WIND TOKYO_PRES TOKYO_R50_DIR TOKYO_R50_LONG TOKYO_R50_SHORT TOKYO_R30_DIR TOKYO_R30_LONG TOKYO_R30_SHORT TOKYO_LAND CMA_LAT CMA_LON CMA_CAT CMA_WIND CMA_PRES HKO_LAT HKO_LON HKO_CAT HKO_WIND HKO_PRES NEWDELHI_LAT NEWDELHI_LON NEWDELHI_GRADE NEWDELHI_WIND NEWDELHI_PRES NEWDELHI_CI NEWDELHI_DP NEWDELHI_POCI REUNION_LAT REUNION_LON REUNION_TYPE REUNION_WIND REUNION_PRES REUNION_TNUM REUNION_CI REUNION_RMW REUNION_R34_NE REUNION_R34_SE REUNION_R34_SW REUNION_R34_NW REUNION_R50_NE REUNION_R50_SE REUNION_R50_SW REUNION_R50_NW REUNION_R64_NE REUNION_R64_SE REUNION_R64_SW REUNION_R64_NW BOM_LAT BOM_LON BOM_TYPE BOM_WIND BOM_PRES BOM_TNUM BOM_CI BOM_RMW BOM_R34_NE BOM_R34_SE BOM_R34_SW BOM_R34_NW BOM_R50_NE BOM_R50_SE BOM_R50_SW BOM_R50_NW BOM_R64_NE BOM_R64_SE BOM_R64_SW BOM_R64_NW BOM_ROCI BOM_POCI BOM_EYE BOM_POS_METHOD BOM_PRES_METHOD NADI_LAT NADI_LON NADI_CAT NADI_WIND NADI_PRES WELLINGTON_LAT WELLINGTON_LON WELLINGTON_WIND WELLINGTON_PRES DS824_LAT DS824_LON DS824_STAGE DS824_WIND DS824_PRES TD9636_LAT TD9636_LON TD9636_STAGE TD9636_WIND TD9636_PRES TD9635_LAT TD9635_LON TD9635_WIND TD9635_PRES TD9635_ROCI NEUMANN_LAT NEUMANN_LON NEUMANN_CLASS NEUMANN_WIND NEUMANN_PRES MLC_LAT MLC_LON MLC_CLASS MLC_WIND MLC_PRES USA_GUST BOM_GUST BOM_GUST_PER REUNION_GUST REUNION_GUST_PER USA_SEAHGT USA_SEARAD_NE USA_SEARAD_SE USA_SEARAD_SW USA_SEARAD_NW STORM_SPEED STORM_DIR
1971275N10176 1971 130 WP MM FAYE(GLORIA):GLORIA 1971-10-02 00:00:00 NR 10.4000 175.700 main 2676 2618 __________O___ -1 10.4000 175.700 1 25 20 276
1971275N10176 1971 130 WP MM FAYE(GLORIA):GLORIA 1971-10-02 03:00:00 NR 10.5016 174.668 main 2618 2563 __________P___ -1 10.5016 174.668 1 25 20 276
1971275N10176 1971 130 WP MM FAYE(GLORIA):GLORIA 1971-10-02 06:00:00 NR 10.6012 173.658 main 2563 2513 __________P___ -1 10.6012 173.658 1 25 20 276
1971275N10176 1971 130 WP MM FAYE(GLORIA):GLORIA 1971-10-02 09:00:00 NR 10.7000 172.694 main 2513 2472 __________P___ -1 10.7000 172.694 1 25 18 276
1971275N10176 1971 130 WP MM FAYE(GLORIA):GLORIA 1971-10-02 12:00:00 NR 10.8000 171.800 main 2472 2439 __________O___ -1 10.8000 171.800 1 25 17 277
1971275N10176 1971 130 WP MM FAYE(GLORIA):GLORIA 1971-10-02 15:00:00 NR 10.9023 170.988 main 2439 2414 __________P___ -1 10.9023 170.988 1 25 16 278
1971275N10176 1971 130 WP MM FAYE(GLORIA):GLORIA 1971-10-02 18:00:00 NR 11.0051 170.227 main 2410 2387 __________P___ -1 11.0051 170.227 1 25 15 278
1971275N10176 1971 130 WP MM FAYE(GLORIA):GLORIA 1971-10-02 21:00:00 NR 11.1055 169.478 main 2387 2363 __________P___ -1 11.1055 169.478 1 25 15 277
1971275N10176 1971 130 WP MM FAYE(GLORIA):GLORIA 1971-10-03 00:00:00 NR 11.2000 168.700 main 2363 2343 __________O___ -1 11.2000 168.700 1 25 16 276
1971275N10176 1971 130 WP MM FAYE(GLORIA):GLORIA 1971-10-03 03:00:00 NR 11.2776 167.848 main 2339 2307 __________P___ -1 11.2776 167.848 1 26 17 275
1971275N10176 1971 130 WP MM FAYE(GLORIA):GLORIA 1971-10-03 06:00:00 NR 11.3491 166.959 main 2307 2260 __________P___ -1 11.3491 166.959 1 27 18 275
1971275N10176 1971 130 WP MM FAYE(GLORIA):GLORIA 1971-10-03 09:00:00 NR 11.4211 166.041 main 2252 2205 __________P___ -1 11.4211 166.041 1 28 18 275
1971275N10176 1971 130 WP MM FAYE(GLORIA):GLORIA 1971-10-03 12:00:00 NR 11.5000 165.100 main 2198 2146 __________O___ -1 11.5000 165.100 1 30 19 275
1971275N10176 1971 130 WP MM FAYE(GLORIA):GLORIA 1971-10-03 15:00:00 NR 11.5849 164.110 main 2140 2088 __________P___ -1 11.5849 164.110 1 30 20 275
1971275N10176 1971 130 WP MM FAYE(GLORIA):GLORIA 1971-10-03 18:00:00 NR 11.6779 163.105 main 2081 2033 __________P___ -1 11.6779 163.105 1 30 20 276
1971275N10176 1971 130 WP MM FAYE(GLORIA):GLORIA 1971-10-03 21:00:00 NR 11.7819 162.122 main 2027 1984 __________P___ -1 11.7819 162.122 1 30 19 277
1971275N10176 1971 130 WP MM FAYE(GLORIA):GLORIA 1971-10-04 00:00:00 NR 11.9000 161.200 main 1984 1953 __________O___ -1 11.9000 161.200 1 30 17 278
1971275N10176 1971 130 WP MM FAYE(GLORIA):GLORIA 1971-10-04 03:00:00 NR 12.0293 160.421 main 1947 1924 __________P___ -1 12.0293 160.421 1 31 16 281
1971275N10176 1971 130 WP MM FAYE(GLORIA):GLORIA 1971-10-04 06:00:00 TS 12.2194 159.559 1004 tokyo main 1924 1904 _O________P___ -1 12.4000 159.000 2 1004 0 0 0 12.1743 159.699 1 32 17 283
1971275N10176 1971 130 WP MM FAYE(GLORIA):GLORIA 1971-10-04 09:00:00 TS 12.4142 158.767 main 1904 1884 _P________P___ -1 12.5780 158.345 2 1002 0 0 12.3323 158.978 1 33 16 283
1971275N10176 1971 130 WP MM FAYE(GLORIA):GLORIA 1971-10-04 12:00:00 TS 12.5857 157.986 1000 tokyo main 1885 1860 _O________O___ -1 12.7000 157.700 2 1000 0 0 0 12.5000 158.200 2 35 16 280
1971275N10176 1971 130 WP MM FAYE(GLORIA):GLORIA 1971-10-04 15:00:00 TS 12.7032 157.159 main 1860 1836 _P________P___ -1 12.7420 157.052 2 996 0 0 12.6644 157.265 2 40 17 278
1971275N10176 1971 130 WP MM FAYE(GLORIA):GLORIA 1971-10-04 18:00:00 TS 12.8264 156.299 992 tokyo main 1836 1820 OOOO_____OPO__ jtwc_wp WP311971 12.8000 156.400 50 0 12.8000 156.300 9 992 0 0 0 13.0000 156.100 3 58 992 12.8000 156.300 TS 45 993 12.8000 156.400 TC 50 12.8359 156.272 2 45 12.8000 156.400 50 992 240 18 278
1971275N10176 1971 130 WP MM FAYE(GLORIA):GLORIA 1971-10-04 21:00:00 TS 12.9638 155.353 main 1827 1811 PPPP_____PPP__ WP311971 13.0011 155.313 52 0 12.9852 155.338 9 992 0 0 12.8034 155.874 3 63 992 12.8688 155.152 TS 47 989 13.0011 155.313 TC 52 13.0143 155.268 2 50 13.0011 155.313 52 989 210 19 279
1971275N10176 1971 130 WP MM FAYE(GLORIA):GLORIA 1971-10-05 00:00:00 TS 13.1217 154.391 992 tokyo main 1811 1809 OOOO_____OOO__ jtwc_wp WP311971 13.2000 154.300 55 0 13.2000 154.300 9 992 0 0 0 12.8000 155.200 4 68 992 13.0000 154.100 STS 50 986 13.2000 154.300 TC 55 13.2000 154.300 2 55 13.2000 154.300 55 986 180 19 281
1971275N10176 1971 130 WP MM FAYE(GLORIA):GLORIA 1971-10-05 03:00:00 TS 13.3232 153.433 main 1813 1812 PPPP_____PPP__ WP311971 13.3995 153.412 57 0 13.3424 153.312 9 992 0 0 13.0999 153.839 4 68 992 13.2344 153.205 STS 50 985 13.3995 153.412 TC 57 13.3871 153.436 2 57 13.3995 153.412 57 985 180 19 283
1971275N10176 1971 130 WP MM FAYE(GLORIA):GLORIA 1971-10-05 06:00:00 TS 13.5547 152.516 992 tokyo main 1834 1831 OOOO_____OPO__ jtwc_wp WP311971 13.6000 152.600 60 0 13.5000 152.400 9 992 0 0 0 13.5000 152.400 4 68 992 13.5000 152.400 STS 50 985 13.6000 152.600 TC 60 13.5828 152.612 2 60 13.6000 152.600 60 985 180 17 285
1971275N10176 1971 130 WP MM FAYE(GLORIA):GLORIA 1971-10-05 09:00:00 TS 13.7692 151.703 main 1843 1835 PPPP_____PPP__ WP311971 13.7998 151.777 62 0 13.7345 151.612 9 992 0 0 13.7711 151.595 4 68 992 13.6923 151.577 STS 52 989 13.7998 151.777 TC 62 13.7872 151.807 2 62 13.7998 151.777 62 989 210 16 286
1971275N10176 1971 130 WP MM FAYE(GLORIA):GLORIA 1971-10-05 12:00:00 TS 13.9857 150.957 992 tokyo main 1846 1842 OOOO_____OOO__ jtwc_wp WP311971 14.0000 151.000 65 1 14.0000 150.900 9 992 0 0 0 14.0000 151.000 4 68 992 13.9000 150.800 STS 55 993 14.0000 151.000 TC 65 14.0000 151.000 3 65 14.0000 151.000 65 993 240 15 288
1971275N10176 1971 130 WP MM FAYE(GLORIA):GLORIA 1971-10-05 15:00:00 TS 14.2070 150.280 main 1853 1852 PPPP_____PPP__ WP311971 14.1917 150.330 65 1 14.2491 150.252 9 992 0 0 14.2065 150.375 4 72 992 14.2068 150.122 STS 55 993 14.1917 150.330 TC 65 14.2112 150.221 3 63 14.1917 150.330 65 993 240 15 288
1971275N10176 1971 130 WP MM FAYE(GLORIA):GLORIA 1971-10-05 18:00:00 TS 14.4330 149.532 992 tokyo main 1862 1862 OOOO_____OPO__ jtwc_wp WP311971 14.4000 149.600 65 1 14.5000 149.500 9 992 0 0 0 14.4000 149.600 4 77 992 14.5000 149.400 STS 55 993 14.4000 149.600 TC 65 14.4310 149.425 3 62 14.4000 149.600 65 993 240 17 285
1971275N10176 1971 130 WP MM FAYE(GLORIA):GLORIA 1971-10-05 21:00:00 TS 14.6443 148.599 main 1875 1875 PPPP_____PPP__ WP311971 14.6268 148.697 62 0 14.7498 148.490 9 992 0 0 14.5775 148.497 4 77 992 14.6417 148.546 STS 55 992 14.6268 148.697 TC 62 14.6604 148.567 3 61 14.6268 148.697 62 993 240 20 283
1971275N10176 1971 130 WP MM FAYE(GLORIA):GLORIA 1971-10-06 00:00:00 TS 14.8857 147.486 992 tokyo main 1904 1904 OOOO_____OOO__ jtwc_wp WP311971 14.9000 147.600 60 0 15.0000 147.300 9 992 0 0 0 14.8000 147.200 4 77 992 14.8000 147.500 STS 55 992 14.9000 147.600 TC 60 14.9000 147.600 2 60 14.9000 147.600 60 993 240 24 284
1971275N10176 1971 130 WP MM FAYE(GLORIA):GLORIA 1971-10-06 03:00:00 TS 15.2153 146.176 main 1938 1938 PPPP_____PPP__ WP311971 15.2656 146.273 57 0 15.2503 145.992 9 993 0 0 15.1354 145.820 4 67 993 15.1432 146.181 STS 52 993 15.2656 146.273 TC 57 15.1818 146.418 2 57 15.2656 146.273 57 993 240 26 284
1971275N10176 1971 130 WP MM FAYE(GLORIA):GLORIA 1971-10-06 06:00:00 TS 15.5377 144.833 994 tokyo main 1981 1981 OOOO_____OPO__ jtwc_wp WP311971 15.6000 144.900 55 0 15.5000 144.700 9 994 0 0 0 15.5000 144.500 3 58 994 15.5000 144.800 STS 50 994 15.6000 144.900 TC 55 15.4636 145.133 2 55 15.6000 144.900 55 994 240 25 283
1971275N10176 1971 130 WP MM FAYE(GLORIA):GLORIA 1971-10-06 09:00:00 TS 15.7836 143.650 main 1994 1890 PPPP_____PPP__ WP311971 15.7942 143.697 52 0 15.7867 143.590 9 995 0 0 15.8588 143.440 3 58 995 15.7442 143.597 STS 47 995 15.7942 143.697 TC 52 15.7131 143.830 2 52 15.7942 143.697 52 995 240 22 281
1971275N10176 1971 130 WP MM FAYE(GLORIA):GLORIA 1971-10-06 12:00:00 TS 15.9429 142.571 996 tokyo main 1890 1787 OOOO_____OOO__ jtwc_wp WP311971 15.9000 142.600 50 0 16.0000 142.600 9 996 0 0 0 16.1000 142.500 3 58 996 15.9000 142.500 TS 45 996 15.9000 142.600 TC 50 15.9000 142.600 2 50 15.9000 142.600 50 996 240 20 276
1971275N10176 1971 130 WP MM FAYE(GLORIA):GLORIA 1971-10-06 15:00:00 TS 16.0019 141.565 main 1787 1693 PPPP_____PPP__ WP311971 15.9719 141.562 47 0 16.0364 141.707 9 997 0 0 16.0870 141.542 3 48 996 15.9793 141.470 TS 42 997 15.9719 141.562 TC 47 15.9949 141.546 2 47 15.9719 141.562 47 997 240 19 272
1971275N10176 1971 130 WP MM FAYE(GLORIA):GLORIA 1971-10-06 18:00:00 TS 16.0041 140.611 998 tokyo main 1683 1589 OOOO_____OPO__ jtwc_wp WP311971 16.0000 140.600 45 0 16.0000 140.800 9 998 0 0 0 16.0000 140.600 2 38 996 16.0000 140.500 TS 40 998 16.0000 140.600 TC 45 16.0289 140.579 2 45 16.0000 140.600 45 998 240 18 270
1971275N10176 1971 130 WP MM FAYE(GLORIA):GLORIA 1971-10-06 21:00:00 TS 16.0115 139.643 main 1579 1496 PPPP_____PPP__ WP311971 16.0070 139.677 42 0 15.9707 139.670 9 999 0 0 16.0574 139.628 2 38 996 16.0075 139.497 TS 37 998 16.0070 139.677 TC 42 16.0236 139.672 2 42 16.0070 139.677 42 998 210 18 270
1971275N10176 1971 130 WP MM FAYE(GLORIA):GLORIA 1971-10-07 00:00:00 TS 16.0143 138.729 1000 tokyo main 1485 1413 OOOO_____OOO__ jtwc_wp WP311971 16.0000 138.800 40 0 16.0000 138.600 9 1000 0 0 0 16.1000 138.700 2 38 996 16.0000 138.600 TS 35 999 16.0000 138.800 TC 40 16.0000 138.800 2 40 16.0000 138.800 40 998 180 17 271
1971275N10176 1971 130 WP MM FAYE(GLORIA):GLORIA 1971-10-07 03:00:00 TS 16.0392 137.911 main 1403 1331 PPPP_____PPP__ WP311971 16.0071 137.943 40 0 16.2140 137.848 9 1000 0 0 16.0522 137.855 2 33 996 15.9991 137.928 TS 35 996 16.0071 137.943 TC 40 15.9910 137.906 2 37 16.0071 137.943 40 997 180 15 271
1971275N10176 1971 130 WP MM FAYE(GLORIA):GLORIA 1971-10-07 06:00:00 TS 16.0376 137.139 1000 tokyo main 1321 1250 OOOO_____OPO__ jtwc_wp WP311971 16.0000 137.100 40 0 16.4000 137.200 9 1000 0 0 0 15.9000 137.100 1 29 996 16.0000 137.300 TS 35 994 16.0000 137.100 TC 40 15.9687 137.042 2 35 16.0000 137.100 40 996 180 15 268
1971275N10176 1971 130 WP MM FAYE(GLORIA):GLORIA 1971-10-07 09:00:00 TS 15.9812 136.351 main 1250 1165 PPPP_____PPP__ WP311971 15.9625 136.241 35 0 16.3900 136.435 9 1000 0 0 15.6371 136.428 1 29 997 16.0074 136.523 TS 32 993 15.9589 136.245 TC 35 15.9371 136.207 2 32 15.9589 136.245 35 997 180 15 263
1971275N10176 1971 130 WP MM FAYE(GLORIA):GLORIA 1971-10-07 12:00:00 TS 15.8600 135.600 1000 tokyo main 1165 1097 OOOO_____OOO__ jtwc_wp WP311971 15.9000 135.400 30 -1 16.2000 135.700 9 1000 0 0 0 15.3000 135.800 1 29 998 16.0000 135.700 TD 30 993 15.9000 135.400 TC 30 15.9000 135.400 1 30 15.9000 135.400 30 998 180 14 257
1971275N10176 1971 130 WP MM FAYE(GLORIA):GLORIA 1971-10-07 15:00:00 TS 15.6568 134.919 main 1087 1022 PPPP__________ WP311971 15.7650 134.589 -1 15.8596 135.085 9 1000 0 0 14.9649 135.143 1 29 998 15.9576 134.862 TD 30 992 TC 1 13 245
1971275N10176 1971 130 WP MM FAYE(GLORIA):GLORIA 1971-10-07 18:00:00 TS 15.3000 134.367 1000 tokyo main 1022 950 POOO__________ WP311971 15.5705 133.811 -1 15.4000 134.500 9 1000 0 0 0 14.6000 134.500 1 29 998 15.9000 134.100 TD 30 992 TC 1 13 238
1971275N10176 1971 130 WP MM FAYE(GLORIA):GLORIA 1971-10-07 21:00:00 TS 14.9606 133.752 main 950 878 PPPP__________ WP311971 15.3309 133.068 -1 14.8325 133.849 9 999 0 0 14.1848 133.893 1 29 999 15.8645 133.513 TD 30 992 TC 1 13 241
1971275N10176 1971 130 WP MM FAYE(GLORIA):GLORIA 1971-10-08 00:00:00 TS 14.6667 133.167 998 tokyo main 878 810 POOO__________ WP311971 15.0604 132.358 -1 14.4000 133.200 9 998 0 0 0 13.8000 133.300 1 29 1000 15.8000 133.000 TD 30 992 TC 1 12 248
1971275N10176 1971 130 WP MM FAYE(GLORIA):GLORIA 1971-10-08 03:00:00 TS 14.5050 132.559 main 810 745 PPPP__________ WP311971 14.7733 131.684 -1 14.3601 132.541 9 998 0 0 13.4898 132.708 1 33 997 15.6650 132.427 TD 30 993 TC 1 12 258
1971275N10176 1971 130 WP MM FAYE(GLORIA):GLORIA 1971-10-08 06:00:00 TS 14.4333 132.000 998 tokyo main 745 704 POOO__________ WP311971 14.4841 131.043 -1 14.5000 132.000 9 998 0 0 0 13.3000 132.100 2 38 994 15.5000 131.900 TD 30 994 TC 1 10 264
1971275N10176 1971 130 WP MM FAYE(GLORIA):GLORIA 1971-10-08 09:00:00 TS 14.4015 131.537 main 694 660 PPPP__________ WP311971 14.2068 130.437 -1 14.5997 131.697 9 997 0 0 13.2550 131.443 2 38 994 15.3498 131.470 TD 27 995 TC 1 8 263
1971275N10176 1971 130 WP MM FAYE(GLORIA):GLORIA 1971-10-08 12:00:00 TS 14.3273 131.136 996 tokyo main 650 620 POOO__________ WP311971 13.9559 129.864 -1 14.7000 131.500 9 996 0 0 0 13.3000 130.800 2 38 994 15.2000 131.100 TD 25 996 TC 1 8 259
1971275N10176 1971 130 WP MM FAYE(GLORIA):GLORIA 1971-10-08 15:00:00 TS 14.2498 130.764 main 616 576 PPPP__________ WP311971 13.7456 129.324 -1 14.7498 131.287 9 996 0 0 13.3497 130.250 2 38 994 15.0501 130.747 TD 25 996 TC 1 8 260
1971275N10176 1971 130 WP MM FAYE(GLORIA):GLORIA 1971-10-08 18:00:00 TS 14.1889 130.356 996 tokyo main 576 512 POOO__________ WP311971 13.5900 128.817 -1 14.8000 131.000 9 996 0 0 0 13.4000 129.700 2 38 994 14.9000 130.400 TD 25 996 TC 1 9 263
1971275N10176 1971 130 WP MM FAYE(GLORIA):GLORIA 1971-10-08 21:00:00 TS 14.1350 129.809 main 512 444 PPP___________ WP311971 13.5035 128.341 -1 14.8773 130.575 9 995 0 0 13.3926 129.042 2 48 993 TD TC 1 12 266
1971275N10176 1971 130 WP MM FAYE(GLORIA):GLORIA 1971-10-09 00:00:00 TS 14.1000 129.078 994 tokyo main 444 394 POO___________ WP311971 13.5002 127.897 -1 15.0000 130.000 9 994 0 0 0 13.4000 128.400 3 58 992 TC 1 14 272
1971275N10176 1971 130 WP MM FAYE(GLORIA):GLORIA 1971-10-09 03:00:00 TS 14.1906 128.418 main 385 327 PPP___________ WP311971 13.5943 127.484 -1 15.1928 129.265 9 992 0 0 13.4398 127.862 3 58 991 TC 1 14 276
1971275N10176 1971 130 WP MM FAYE(GLORIA):GLORIA 1971-10-09 06:00:00 TS 14.2429 127.693 990 tokyo main 327 303 OOO___________ jtwc_wp WP321971 13.8000 127.100 40 0 15.4000 128.500 9 990 0 0 0 13.6000 127.400 3 58 990 TC 1 12 281
1971275N10176 1971 130 WP MM FAYE(GLORIA):GLORIA 1971-10-09 09:00:00 TS 14.4270 127.200 main 303 263 PPP___________ WP321971 14.1229 126.751 40 0 15.5571 127.885 9 990 0 0 13.9548 126.993 3 58 990 TC 1 11 295
1971275N10176 1971 130 WP MM FAYE(GLORIA):GLORIA 1971-10-09 12:00:00 TS 14.6818 126.709 990 tokyo main 263 229 OOO___________ jtwc_wp WP321971 14.5000 126.400 40 0 15.7000 127.300 9 990 0 0 0 14.4000 126.600 3 58 990 TC 1 12 299
1971275N10176 1971 130 WP MM FAYE(GLORIA):GLORIA 1971-10-09 15:00:00 TS 14.9940 126.160 main 229 209 PPP___________ WP321971 14.8925 126.007 40 0 15.8424 126.650 9 990 0 0 14.7925 126.150 3 58 990 TC 1 12 303
1971275N10176 1971 130 WP MM FAYE(GLORIA):GLORIA 1971-10-09 18:00:00 TS 15.3594 125.645 990 tokyo main 210 203 OOO___________ jtwc_wp WP321971 15.3000 125.600 40 0 16.0000 126.000 9 990 0 0 0 15.2000 125.700 3 58 990 TC 1 12 310
1971275N10176 1971 130 WP MM FAYE(GLORIA):GLORIA 1971-10-09 21:00:00 TS 15.7528 125.214 main 223 219 PPP___________ WP321971 15.6998 125.222 42 0 16.1923 125.392 9 990 0 0 15.6423 125.307 3 53 989 TC 1 12 314
1971275N10176 1971 130 WP MM FAYE(GLORIA):GLORIA 1971-10-10 00:00:00 TS 16.1571 124.786 990 tokyo main 252 196 OOO___________ jtwc_wp WP321971 16.1000 124.800 45 0 16.4000 124.800 9 990 0 0 0 16.1000 124.900 3 48 988 TC 1 12 312
1971275N10176 1971 130 WP MM FAYE(GLORIA):GLORIA 1971-10-10 03:00:00 TS 16.5669 124.289 main 194 138 PPP___________ WP321971 16.5149 124.287 42 0 16.6145 124.230 9 990 0 0 16.6174 124.423 3 43 988 TC 1 13 307
1971275N10176 1971 130 WP MM FAYE(GLORIA):GLORIA 1971-10-10 06:00:00 TS 16.9119 123.727 990 tokyo main 127 64 OOO___________ jtwc_wp WP321971 16.9000 123.700 40 0 16.8000 123.600 9 990 0 0 0 17.0000 123.900 2 38 988 TC 1 13 296
1971275N10176 1971 130 WP MM FAYE(GLORIA):GLORIA 1971-10-10 09:00:00 TS 17.1293 123.092 main 64 0 PPP___________ WP321971 17.2223 123.072 37 0 16.9296 122.860 9 987 0 0 17.0299 123.357 2 38 988 TC 1 13 285
1971275N10176 1971 130 WP MM FAYE(GLORIA):GLORIA 1971-10-10 12:00:00 TS 17.2632 122.400 985 tokyo main 0 0 OOO___________ jtwc_wp WP321971 17.5000 122.400 35 0 17.0000 122.000 9 985 0 0 0 17.0000 122.800 2 38 988 TC 1 14 282
1971275N10176 1971 130 WP MM FAYE(GLORIA):GLORIA 1971-10-10 15:00:00 TS 17.4147 121.643 main 0 0 PPP___________ WP321971 17.8584 121.695 32 -1 17.1204 120.994 9 985 0 0 17.1977 122.198 2 33 990 TC 1 15 277
1971275N10176 1971 130 WP MM FAYE(GLORIA):GLORIA 1971-10-10 18:00:00 TS 17.4500 120.810 985 tokyo main 0 0 OOO___________ jtwc_wp WP321971 18.0000 121.000 30 -1 17.0000 120.000 9 985 0 0 0 17.5000 121.700 1 29 992 TC 1 18 251
1971275N10176 1971 130 WP MM FAYE(GLORIA):GLORIA 1971-10-10 21:00:00 TS 16.8292 119.865 main 48 39 PPP___________ WP321971 17.5023 120.237 38 0 16.3226 119.083 9 985 0 0 17.8423 121.430 1 24 995 TC 1 21 232
1971275N10176 1971 130 WP MM FAYE(GLORIA):GLORIA 1971-10-11 00:00:00 TS 16.1200 119.060 985 tokyo main 65 65 POO___________ WP321971 16.6195 119.535 47 0 15.6000 118.500 9 985 0 0 0 18.2000 121.300 0 19 998 TC 1 20 223
1971275N10176 1971 130 WP MM FAYE(GLORIA):GLORIA 1971-10-11 03:00:00 NR 15.3367 118.424 main 159 133 PP____________ WP321971 15.6517 119.017 56 0 15.4046 118.451 9 985 0 0 0 TC 1 11 198
1971275N10176 1971 130 WP MM FAYE(GLORIA):GLORIA 1971-10-11 06:00:00 TS 15.0666 118.701 985 tokyo main 133 121 OO_______O_O__ jtwc_wp WP311971 14.9000 118.800 65 1 15.3000 118.700 9 985 0 0 0 14.9000 118.800 TC 65 1 14.9000 118.800 65 984 300 8 139
1971275N10176 1971 130 WP MM FAYE(GLORIA):GLORIA 1971-10-11 09:00:00 TS 14.7377 118.956 main 118 102 PP_______P_P__ WP311971 14.6355 118.989 62 0 14.8925 118.928 9 985 0 0 14.6936 119.054 TC 62 1 14.6936 119.054 62 984 300 8 139
1971275N10176 1971 130 WP MM FAYE(GLORIA):GLORIA 1971-10-11 12:00:00 TS 14.4826 119.217 985 tokyo main 102 87 OO_______OOO__ jtwc_wp WP311971 14.5000 119.300 60 0 14.5000 119.200 9 985 0 0 0 14.5000 119.300 TC 60 14.5000 119.300 2 60 14.5000 119.300 60 985 300 6 132
1971275N10176 1971 130 WP MM FAYE(GLORIA):GLORIA 1971-10-11 15:00:00 TS 14.3179 119.431 main 93 85 PP_______PPP__ WP311971 14.3274 119.457 60 0 14.3625 119.465 9 985 0 0 14.3274 119.457 TC 60 14.3802 119.385 2 58 14.3274 119.457 60 985 300 5 126
1971275N10176 1971 130 WP MM FAYE(GLORIA):GLORIA 1971-10-11 18:00:00 TS 14.2024 119.615 985 tokyo main 85 77 OO_______OPO__ jtwc_wp WP311971 14.2000 119.600 60 0 14.3000 119.700 9 985 0 0 0 14.2000 119.600 TC 60 14.2662 119.527 2 57 14.2000 119.600 60 985 300 4 121
1971275N10176 1971 130 WP MM FAYE(GLORIA):GLORIA 1971-10-11 21:00:00 TS 14.1210 119.773 main 78 62 PP_______PPP__ WP311971 14.1424 119.770 57 0 14.1498 119.812 9 985 0 0 14.1424 119.770 TC 57 14.1691 119.730 2 56 14.1424 119.770 57 986 270 4 113
1971275N10176 1971 130 WP MM FAYE(GLORIA):GLORIA 1971-10-12 00:00:00 TS 14.0571 119.971 985 tokyo main 62 43 OO_______OOO__ jtwc_wp WP311971 14.1000 120.000 55 0 14.0000 120.000 9 985 0 0 0 14.1000 120.000 TC 55 14.1000 120.000 2 55 14.1000 120.000 55 987 240 5 112
1971275N10176 1971 130 WP MM FAYE(GLORIA):GLORIA 1971-10-12 03:00:00 TS 13.9320 120.257 main 32 0 PP_______PPP__ WP311971 13.9775 120.313 55 0 13.8402 120.455 9 985 0 0 13.9775 120.313 TC 55 14.0063 120.320 2 52 13.9775 120.313 55 988 240 7 106
1971275N10176 1971 130 WP MM FAYE(GLORIA):GLORIA 1971-10-12 06:00:00 TS 13.8786 120.629 985 tokyo main 0 0 OO_______OPO__ jtwc_wp WP311971 13.9000 120.700 55 0 13.8000 121.000 9 985 0 0 0 13.9000 120.700 TC 55 13.9500 120.704 2 50 13.9000 120.700 55 989 240 8 86
1971275N10176 1971 130 WP MM FAYE(GLORIA):GLORIA 1971-10-12 09:00:00 TS 13.9902 121.084 main 0 0 PP_______PPP__ WP311971 13.9400 121.128 50 0 13.9824 121.457 9 987 0 0 13.9400 121.128 TC 50 13.9687 121.136 2 47 13.9400 121.128 50 990 210 10 70
1971275N10176 1971 130 WP MM FAYE(GLORIA):GLORIA 1971-10-12 12:00:00 TS 14.2143 121.571 990 tokyo main 0 0 OO_______OOO__ jtwc_wp WP311971 14.1000 121.600 45 0 14.3000 121.900 9 990 0 0 0 14.1000 121.600 TC 45 14.1000 121.600 2 45 14.1000 121.600 45 991 180 10 62
1971275N10176 1971 130 WP MM FAYE(GLORIA):GLORIA 1971-10-12 15:00:00 TS 14.4678 122.021 main 34 34 PP_______PPP__ WP311971 14.3399 122.093 40 0 14.6125 122.365 9 990 0 0 14.3399 122.093 TC 40 14.3855 122.107 2 41 14.3399 122.093 40 992 180 10 56
1971275N10176 1971 130 WP MM FAYE(GLORIA):GLORIA 1971-10-12 18:00:00 TS 14.7972 122.462 990 tokyo main 67 67 OO_______OPO__ jtwc_wp WP311971 14.7000 122.600 35 0 15.0000 122.800 9 990 0 0 0 14.7000 122.600 TC 35 14.7807 122.636 2 37 14.7000 122.600 35 993 180 11 50
1971275N10176 1971 130 WP MM FAYE(GLORIA):GLORIA 1971-10-12 21:00:00 TS 15.2022 122.915 main 111 111 PP_______PPP__ WP311971 15.1851 123.130 32 -1 15.4924 123.173 9 991 0 0 15.1851 123.130 TC 32 15.2355 123.147 2 33 15.1851 123.130 32 994 180 12 44
1971275N10176 1971 130 WP MM FAYE(GLORIA):GLORIA 1971-10-13 00:00:00 TS 15.6360 123.312 992 tokyo main 135 130 OO_______OOO__ jtwc_wp WP311971 15.7000 123.600 30 -1 16.0000 123.500 9 992 0 0 0 15.7000 123.600 TC 30 15.7000 123.600 1 30 15.7000 123.600 30 995 180 11 40
1971275N10176 1971 130 WP MM FAYE(GLORIA):GLORIA 1971-10-13 03:00:00 TS 16.0463 123.664 main 161 153 PP_______PPP__ WP311971 16.1299 123.940 30 -1 16.3848 123.786 9 992 0 0 16.1299 123.940 TC 30 16.1345 123.963 1 30 16.1299 123.940 30 996 150 11 38
1971275N10176 1971 130 WP MM FAYE(GLORIA):GLORIA 1971-10-13 06:00:00 TS 16.4834 123.997 992 tokyo main 165 165 OO_______OPO__ jtwc_wp WP311971 16.5000 124.200 30 -1 16.8000 124.100 9 992 0 0 0 16.5000 124.200 TC 30 16.5394 124.251 1 30 16.5000 124.200 30 997 120 12 34
1971275N10176 1971 130 WP MM FAYE(GLORIA):GLORIA 1971-10-13 09:00:00 TS 17.0007 124.332 main 191 191 _P________P___ WP311971 -1 17.3850 124.520 9 992 0 0 TC 16.9246 124.488 1 30 13 33
1971275N10176 1971 130 WP MM FAYE(GLORIA):GLORIA 1971-10-13 12:00:00 TS 17.5778 124.733 992 tokyo main 243 243 _O________O___ -1 18.0000 125.000 9 992 0 0 0 17.3000 124.700 1 30 15 34
1971275N10176 1971 130 WP MM FAYE(GLORIA):GLORIA 1971-10-13 15:00:00 NR 18.2325 125.217 main 306 306 _P____________ -1 18.5149 125.493 9 992 0 0 1 16 39
1971275N10176 1971 130 WP MM FAYE(GLORIA):GLORIA 1971-10-13 18:00:00 NR 18.8000 125.780 992 tokyo main 371 371 _O____________ -1 19.0000 126.000 9 992 0 0 0 1 18 43
1971275N10176 1971 130 WP MM FAYE(GLORIA):GLORIA 1971-10-13 21:00:00 NR 19.5149 126.500 main 458 458 _P____________ -1 19.5149 126.500 9 992 0 0 1 17 44
1971275N10176 1971 130 WP MM FAYE(GLORIA):GLORIA 1971-10-14 00:00:00 NR 20.0000 127.000 992 tokyo main 524 524 _O____________ -1 20.0000 127.000 9 992 0 0 0 13 46
1971275N10176 1971 130 WP MM FAYE(GLORIA):GLORIA 1971-10-14 03:00:00 NR 20.4225 127.515 main 589 589 _P____________ -1 20.4225 127.515 9 994 0 0 12 50
1971275N10176 1971 130 WP MM FAYE(GLORIA):GLORIA 1971-10-14 06:00:00 NR 20.8000 128.000 996 tokyo main 654 654 _O____________ -1 20.8000 128.000 9 996 0 0 0 11 48
1971275N10176 1971 130 WP MM FAYE(GLORIA):GLORIA 1971-10-14 09:00:00 NR 21.1496 128.393 main 706 706 _P____________ -1 21.1496 128.393 9 997 0 0 10 47
1971275N10176 1971 130 WP MM FAYE(GLORIA):GLORIA 1971-10-14 12:00:00 NR 21.5000 128.800 998 tokyo main 762 762 _O____________ -1 21.5000 128.800 9 998 0 0 0 11 47
1971275N10176 1971 130 WP MM FAYE(GLORIA):GLORIA 1971-10-14 15:00:00 NR 21.8990 129.253 main 809 805 _P____________ -1 21.8990 129.253 9 999 0 0 13 52
1971275N10176 1971 130 WP MM FAYE(GLORIA):GLORIA 1971-10-14 18:00:00 NR 22.3000 129.900 1000 tokyo main 852 852 _O____________ -1 22.3000 129.900 9 1000 0 0 0 17 64
1971275N10176 1971 130 WP MM FAYE(GLORIA):GLORIA 1971-10-14 21:00:00 NR 22.6588 130.920 main 927 901 _P____________ -1 22.6588 130.920 9 1002 0 0 21 70
1971275N10176 1971 130 WP MM FAYE(GLORIA):GLORIA 1971-10-15 00:00:00 NR 23.0000 132.000 1004 tokyo main 902 880 _O____________ -1 23.0000 132.000 9 1004 0 0 0 19 68
1971275N10176 1971 130 WP MM FAYE(GLORIA):GLORIA 1971-10-15 03:00:00 NR 23.3414 132.796 main 884 857 _P____________ -1 23.3414 132.796 9 1007 0 0 15 63
1971275N10176 1971 130 WP MM FAYE(GLORIA):GLORIA 1971-10-15 06:00:00 TS 23.7000 133.500 1010 tokyo main 860 846 _O____________ -1 23.7000 133.500 2 1010 0 0 0 16 61
1971275N10176 1971 130 WP MM FAYE(GLORIA):GLORIA 1971-10-15 09:00:00 TS 24.0928 134.302 main 847 834 _P____________ -1 24.0928 134.302 2 1012 0 0 16 60
1971275N10176 1971 130 WP MM FAYE(GLORIA):GLORIA 1971-10-15 12:00:00 TS 24.5000 135.000 1014 tokyo main 839 811 _O____________ -1 24.5000 135.000 2 1014 0 0 0 12 48
1971275N10176 1971 130 WP MM FAYE(GLORIA):GLORIA 1971-10-15 15:00:00 TS 24.9041 135.282 main 816 800 _P____________ -1 24.9041 135.282 2 1013 0 0 11 42
1971275N10176 1971 130 WP MM FAYE(GLORIA):GLORIA 1971-10-15 18:00:00 ET 25.3000 135.800 1012 tokyo main 805 805 _O____________ -1 25.3000 135.800 6 1012 0 0 0 18 65
1971275N10176 1971 130 WP MM FAYE(GLORIA):GLORIA 1971-10-15 21:00:00 ET 25.6674 137.099 main 844 844 _P____________ -1 25.6674 137.099 6 1013 0 0 29 76
1971275N10176 1971 130 WP MM FAYE(GLORIA):GLORIA 1971-10-16 00:00:00 ET 26.0000 138.900 1014 tokyo main 878 _O____________ -1 26.0000 138.900 6 1014 0 0 0 33 78

デジタル台風データ・検索

IBTrACS Databaseについて

本データベースは、米国NOAAが公開する1842年以降の世界の熱帯低気圧のベストトラックデータアーカイブInternational Best Track Archive for Climate Stewardship (IBTrACS)を、ウェブで閲覧しやすい形式に変換したものです。

最終更新日:2021-12-06